Elko Regional Airport
KEKO : now visible

Airfield :











YOU CAN JOIN US ON...

 
LOGIN :

Register | Disclaimer

   EN    FR    IT 

 









Legend :    VFR   Marginal VFR   IFR   Intensive IFR   Very Intensive IFR
Visi :
Ceiling :
>= 8 km
>= 3000ft
5 to 8 km
1000 to 3000 ft
1500m to 5 km
500 to 1000 ft
800 to 1500m
200 to 500 ft
< 800m
< 200 ft
Symbols :   Thunderstorms  Fog  Heavy snow  Heavy precipitations  Wind > 20 kt






- Airport Elevation : 5140 ft
- IATA code : EKO


KEKO - Elko Regional

CURRENT METAR :
  • 141956Z AUTO 01006KT 10SM CLR 02/M06 A2994 RMK AO2 SLP146 T00221061 $

EXPIRED METARs :
  • 141856Z AUTO 31010KT 10SM CLR 02/M06 A2994 RMK AO2 SLP143 T00221061 $
  • 141756Z AUTO 31008KT 10SM CLR 02/M06 A2995 RMK AO2 SLP145 60000 T00221056 10028 20000 51024 $

TAF KEKO
Valid from the 14 at 18:00 until the 15 at 18:00 UTC


141733Z 1418/1518 28008KT P6SM SCT050
FM150000 VRB03KT P6SM SCT030 BKN180



MET'MAP, your aeronautical weather chart ! - Copyright ORBIFLY December 2007 - Disclaimer

ORBIFLY MET'MAP TEAM :

Programming & Development : Alexandra Zaïnal
Concept & original design : Baudouin d'Aumeries
Assistance for programming : Marc-Olivier Méhu
Technical & hardware support : Manuel Goepfert

Contact : metmap@orbifly.com




SOURCES & CREDITS :

   NOAA       Earth
Advisory